Home > Products > Valid Products > TAF

000
FTUS45 KGJT 311737
TAFGJT
TAF
KGJT 311737Z 3118/0118 17005KT P6SM FEW100
     FM312000 25010KT P6SM SCT120 SCT250
     FM312100 28013G21KT P6SM SCT120 SCT250
     FM010200 07008KT P6SM SCT120 SCT200
     FM010600 11012KT P6SM SCT250
     FM011600 17006KT P6SM SCT250=



000
FTUS45 KGJT 311737
TAFGJT
TAF
KGJT 311737Z 3118/0118 17005KT P6SM FEW100
     FM312000 25010KT P6SM SCT120 SCT250
     FM312100 28013G21KT P6SM SCT120 SCT250
     FM010200 07008KT P6SM SCT120 SCT200
     FM010600 11012KT P6SM SCT250
     FM011600 17006KT P6SM SCT250=



000
FTUS45 KGJT 311658 AAA
TAFGJT
TAF AMD
KGJT 311658Z 3117/0112 17005KT P6SM FEW100
     FM312000 25012G20KT P6SM SCT120 SCT250
     FM010200 07008KT P6SM SCT120 BKN200
     FM010600 11012KT P6SM BKN200=



000
FTUS45 KGJT 311658 AAA
TAFGJT
TAF AMD
KGJT 311658Z 3117/0112 17005KT P6SM FEW100
     FM312000 25012G20KT P6SM SCT120 SCT250
     FM010200 07008KT P6SM SCT120 BKN200
     FM010600 11012KT P6SM BKN200=



000
FTUS45 KGJT 311120
TAFGJT
TAF
KGJT 311120Z 3112/0112 12012KT P6SM SKC
     FM311400 13012KT P6SM FEW250
     FM312000 25012G20KT P6SM SCT120 SCT250
     FM010200 07008KT P6SM SCT120 BKN200
     FM010600 11012KT P6SM BKN200=



000
FTUS45 KGJT 311120
TAFGJT
TAF
KGJT 311120Z 3112/0112 12012KT P6SM SKC
     FM311400 13012KT P6SM FEW250
     FM312000 25012G20KT P6SM SCT120 SCT250
     FM010200 07008KT P6SM SCT120 BKN200
     FM010600 11012KT P6SM BKN200=



000
FTUS45 KGJT 310521
TAFGJT
TAF
KGJT 310521Z 3106/0106 11006KT P6SM SKC
     FM311400 13012KT P6SM FEW250
     FM312000 25013G22KT P6SM SCT120 SCT250
     FM010200 07008KT P6SM SCT120 BKN200=



000
FTUS45 KGJT 310521
TAFGJT
TAF
KGJT 310521Z 3106/0106 11006KT P6SM SKC
     FM311400 13012KT P6SM FEW250
     FM312000 25013G22KT P6SM SCT120 SCT250
     FM010200 07008KT P6SM SCT120 BKN200=



000
FTUS45 KGJT 310521
TAFGJT
TAF
KGJT 310521Z 3106/0106 11006KT P6SM SKC
     FM311400 13012KT P6SM FEW250
     FM312000 25013G22KT P6SM SCT120 SCT250
     FM010200 07008KT P6SM SCT120 BKN200=



000
FTUS45 KGJT 310521
TAFGJT
TAF
KGJT 310521Z 3106/0106 11006KT P6SM SKC
     FM311400 13012KT P6SM FEW250
     FM312000 25013G22KT P6SM SCT120 SCT250
     FM010200 07008KT P6SM SCT120 BKN200=



000
FTUS45 KGJT 310056 AAA
TAFGJT
TAF AMD
KGJT 310056Z 3101/3124 32007KT P6SM FEW120 FEW250
     FM310200 03006KT P6SM SKC
     FM310600 11010KT P6SM SKC
     FM311400 13012KT P6SM FEW250
     FM312000 25013G22KT P6SM SCT120 SCT250=



000
FTUS45 KGJT 310056 AAA
TAFGJT
TAF AMD
KGJT 310056Z 3101/3124 32007KT P6SM FEW120 FEW250
     FM310200 03006KT P6SM SKC
     FM310600 11010KT P6SM SKC
     FM311400 13012KT P6SM FEW250
     FM312000 25013G22KT P6SM SCT120 SCT250=



000
FTUS45 KGJT 310056 AAA
TAFGJT
TAF AMD
KGJT 310056Z 3101/3124 32007KT P6SM FEW120 FEW250
     FM310200 03006KT P6SM SKC
     FM310600 11010KT P6SM SKC
     FM311400 13012KT P6SM FEW250
     FM312000 25013G22KT P6SM SCT120 SCT250=



000
FTUS45 KGJT 302326
TAFGJT
TAF
KGJT 302326Z 3100/3124 31008G15KT P6SM FEW120 FEW250
     FM310200 03006KT P6SM SKC
     FM310600 11010KT P6SM SKC
     FM311400 13012KT P6SM FEW250
     FM312000 25013G22KT P6SM SCT120 SCT250=



000
FTUS45 KGJT 302326
TAFGJT
TAF
KGJT 302326Z 3100/3124 31008G15KT P6SM FEW120 FEW250
     FM310200 03006KT P6SM SKC
     FM310600 11010KT P6SM SKC
     FM311400 13012KT P6SM FEW250
     FM312000 25013G22KT P6SM SCT120 SCT250=



000
FTUS45 KGJT 301720
TAFGJT
TAF
KGJT 301720Z 3018/3118 19003KT P6SM FEW080 SCT250
     FM302000 29008G15KT P6SM FEW120 SCT250
     FM310100 03006KT P6SM SKC
     FM310600 13010KT P6SM SKC=



000
FTUS45 KGJT 301720
TAFGJT
TAF
KGJT 301720Z 3018/3118 19003KT P6SM FEW080 SCT250
     FM302000 29008G15KT P6SM FEW120 SCT250
     FM310100 03006KT P6SM SKC
     FM310600 13010KT P6SM SKC=



000
FTUS45 KGJT 301720
TAFGJT
TAF
KGJT 301720Z 3018/3118 19003KT P6SM FEW080 SCT250
     FM302000 29008G15KT P6SM FEW120 SCT250
     FM310100 03006KT P6SM SKC
     FM310600 13010KT P6SM SKC=



000
FTUS45 KGJT 301720
TAFGJT
TAF
KGJT 301720Z 3018/3118 19003KT P6SM FEW080 SCT250
     FM302000 29008G15KT P6SM FEW120 SCT250
     FM310100 03006KT P6SM SKC
     FM310600 13010KT P6SM SKC=



000
FTUS45 KGJT 301120
TAFGJT
TAF
KGJT 301120Z 3012/3112 11010KT P6SM SCT250
     FM301500 14005KT P6SM FEW250
     FM302000 29008G15KT P6SM FEW120 SCT250
     FM310100 03006KT P6SM SKC
     FM310600 11010KT P6SM SKC=



000
FTUS45 KGJT 301120
TAFGJT
TAF
KGJT 301120Z 3012/3112 11010KT P6SM SCT250
     FM301500 14005KT P6SM FEW250
     FM302000 29008G15KT P6SM FEW120 SCT250
     FM310100 03006KT P6SM SKC
     FM310600 11010KT P6SM SKC=



000
FTUS45 KGJT 301120
TAFGJT
TAF
KGJT 301120Z 3012/3112 11010KT P6SM SCT250
     FM301500 14005KT P6SM FEW250
     FM302000 29008G15KT P6SM FEW120 SCT250
     FM310100 03006KT P6SM SKC
     FM310600 11010KT P6SM SKC=



000
FTUS45 KGJT 301120
TAFGJT
TAF
KGJT 301120Z 3012/3112 11010KT P6SM SCT250
     FM301500 14005KT P6SM FEW250
     FM302000 29008G15KT P6SM FEW120 SCT250
     FM310100 03006KT P6SM SKC
     FM310600 11010KT P6SM SKC=



000
FTUS45 KGJT 300525
TAFGJT
TAF
KGJT 300525Z 3006/3106 08005KT P6SM SCT250
     FM300800 12008KT P6SM SCT250
     FM301500 14005KT P6SM FEW250
     FM302000 29008G15KT P6SM FEW120 SCT250
     FM310100 03006KT P6SM SKC=



000
FTUS45 KGJT 300525
TAFGJT
TAF
KGJT 300525Z 3006/3106 08005KT P6SM SCT250
     FM300800 12008KT P6SM SCT250
     FM301500 14005KT P6SM FEW250
     FM302000 29008G15KT P6SM FEW120 SCT250
     FM310100 03006KT P6SM SKC=



000
FTUS45 KGJT 300525
TAFGJT
TAF
KGJT 300525Z 3006/3106 08005KT P6SM SCT250
     FM300800 12008KT P6SM SCT250
     FM301500 14005KT P6SM FEW250
     FM302000 29008G15KT P6SM FEW120 SCT250
     FM310100 03006KT P6SM SKC=



000
FTUS45 KGJT 300525
TAFGJT
TAF
KGJT 300525Z 3006/3106 08005KT P6SM SCT250
     FM300800 12008KT P6SM SCT250
     FM301500 14005KT P6SM FEW250
     FM302000 29008G15KT P6SM FEW120 SCT250
     FM310100 03006KT P6SM SKC=



000
FTUS45 KGJT 292331
TAFGJT
TAF
KGJT 292331Z 3000/3024 29011KT P6SM FEW250
     FM300200 06007KT P6SM SKC
     FM300800 12008KT P6SM SKC
     FM301500 14005KT P6SM FEW250
     FM302000 29007KT P6SM FEW120 SCT250=



000
FTUS45 KGJT 292331
TAFGJT
TAF
KGJT 292331Z 3000/3024 29011KT P6SM FEW250
     FM300200 06007KT P6SM SKC
     FM300800 12008KT P6SM SKC
     FM301500 14005KT P6SM FEW250
     FM302000 29007KT P6SM FEW120 SCT250=



000
FTUS45 KGJT 291726
TAFGJT
TAF
KGJT 291726Z 2918/3018 04012G20KT P6SM FEW250
     FM291900 05008G15KT P6SM FEW250
     FM292100 33007KT P6SM FEW250
     FM300300 06007KT P6SM FEW250
     FM300800 12010KT P6SM FEW250=



000
FTUS45 KGJT 291726
TAFGJT
TAF
KGJT 291726Z 2918/3018 04012G20KT P6SM FEW250
     FM291900 05008G15KT P6SM FEW250
     FM292100 33007KT P6SM FEW250
     FM300300 06007KT P6SM FEW250
     FM300800 12010KT P6SM FEW250=



000
FTUS45 KGJT 291726
TAFGJT
TAF
KGJT 291726Z 2918/3018 04012G20KT P6SM FEW250
     FM291900 05008G15KT P6SM FEW250
     FM292100 33007KT P6SM FEW250
     FM300300 06007KT P6SM FEW250
     FM300800 12010KT P6SM FEW250=



000
FTUS45 KGJT 291726
TAFGJT
TAF
KGJT 291726Z 2918/3018 04012G20KT P6SM FEW250
     FM291900 05008G15KT P6SM FEW250
     FM292100 33007KT P6SM FEW250
     FM300300 06007KT P6SM FEW250
     FM300800 12010KT P6SM FEW250=



000
FTUS45 KGJT 291120
TAFGJT
TAF
KGJT 291120Z 2912/3012 05010KT P6SM FEW100 SCT120
     FM291300 12005KT P6SM FEW120
     FM292000 31005KT P6SM SCT100
     FM300300 06005KT P6SM FEW100
     FM300600 10005KT P6SM SKC=



000
FTUS45 KGJT 291120
TAFGJT
TAF
KGJT 291120Z 2912/3012 05010KT P6SM FEW100 SCT120
     FM291300 12005KT P6SM FEW120
     FM292000 31005KT P6SM SCT100
     FM300300 06005KT P6SM FEW100
     FM300600 10005KT P6SM SKC=



000
FTUS45 KGJT 291120
TAFGJT
TAF
KGJT 291120Z 2912/3012 05010KT P6SM FEW100 SCT120
     FM291300 12005KT P6SM FEW120
     FM292000 31005KT P6SM SCT100
     FM300300 06005KT P6SM FEW100
     FM300600 10005KT P6SM SKC=



000
FTUS45 KGJT 291120
TAFGJT
TAF
KGJT 291120Z 2912/3012 05010KT P6SM FEW100 SCT120
     FM291300 12005KT P6SM FEW120
     FM292000 31005KT P6SM SCT100
     FM300300 06005KT P6SM FEW100
     FM300600 10005KT P6SM SKC=



000
FTUS45 KGJT 290530
TAFGJT
TAF
KGJT 290530Z 2906/3006 27006KT P6SM FEW120
     FM290800 09006KT P6SM SKC
     FM291100 12005KT P6SM FEW250
     FM292000 31005KT P6SM SCT100
     FM300300 06005KT P6SM FEW100=



000
FTUS45 KGJT 290530
TAFGJT
TAF
KGJT 290530Z 2906/3006 27006KT P6SM FEW120
     FM290800 09006KT P6SM SKC
     FM291100 12005KT P6SM FEW250
     FM292000 31005KT P6SM SCT100
     FM300300 06005KT P6SM FEW100=



000
FTUS45 KGJT 290530
TAFGJT
TAF
KGJT 290530Z 2906/3006 27006KT P6SM FEW120
     FM290800 09006KT P6SM SKC
     FM291100 12005KT P6SM FEW250
     FM292000 31005KT P6SM SCT100
     FM300300 06005KT P6SM FEW100=



000
FTUS45 KGJT 290530
TAFGJT
TAF
KGJT 290530Z 2906/3006 27006KT P6SM FEW120
     FM290800 09006KT P6SM SKC
     FM291100 12005KT P6SM FEW250
     FM292000 31005KT P6SM SCT100
     FM300300 06005KT P6SM FEW100=



000
FTUS45 KGJT 282336
TAFGJT
TAF
KGJT 282336Z 2900/2924 27010G20KT P6SM FEW120
     FM290200 01006KT P6SM FEW120
     FM290800 09006KT P6SM SKC
     FM291100 12005KT P6SM FEW250
     FM292000 31005KT P6SM SCT250=



000
FTUS45 KGJT 282336
TAFGJT
TAF
KGJT 282336Z 2900/2924 27010G20KT P6SM FEW120
     FM290200 01006KT P6SM FEW120
     FM290800 09006KT P6SM SKC
     FM291100 12005KT P6SM FEW250
     FM292000 31005KT P6SM SCT250=



000
FTUS45 KGJT 282336
TAFGJT
TAF
KGJT 282336Z 2900/2924 27010G20KT P6SM FEW120
     FM290200 01006KT P6SM FEW120
     FM290800 09006KT P6SM SKC
     FM291100 12005KT P6SM FEW250
     FM292000 31005KT P6SM SCT250=



000
FTUS45 KGJT 282336
TAFGJT
TAF
KGJT 282336Z 2900/2924 27010G20KT P6SM FEW120
     FM290200 01006KT P6SM FEW120
     FM290800 09006KT P6SM SKC
     FM291100 12005KT P6SM FEW250
     FM292000 31005KT P6SM SCT250=



    US Dept of Commerce
    National Oceanic and Atmospheric Administration
    National Weather Service
    1325 East West Highway
    Silver Spring, MD 20910
    Page Author: NWS Internet Services Team
Disclaimer
Information Quality
Credits
Glossary
Privacy Policy
Freedom of Information Act (FOIA)
About Us
Career Opportunities